Time;durP1;ratioP1;P1;durP2;ratioP2;P2;SDS_P1;SDS_P2;PMS_P1;PMS_P2;Temp;Humidity;BMP_temperature;BMP_pressure;BME280_temperature;BME280_humidity;BME280_pressure;Samples;Min_cycle;Max_cycle;Signal;HPM_P1;HPM_P2
2023/07/12 00:00:27;;;;;;;4.55;2.40;;;19.60;99.90;;;;;;5007699;28;20042;-68
2023/07/12 00:02:59;;;;;;;5.68;2.92;;;19.70;99.90;;;;;;5024124;28;20115;-68
2023/07/12 00:05:31;;;;;;;5.32;2.30;;;19.70;99.90;;;;;;5025693;28;20103;-68
2023/07/12 00:08:04;;;;;;;7.03;3.75;;;19.80;99.90;;;;;;5020513;28;20034;-68
2023/07/12 00:10:36;;;;;;;5.28;2.67;;;19.90;99.90;;;;;;5016566;28;20041;-68
2023/07/12 00:13:03;;;;;;;3.53;2.10;;;20.00;99.90;;;;;;5014211;28;20038;-67
2023/07/12 00:15:32;;;;;;;4.38;2.28;;;20.10;99.90;;;;;;4997110;28;20503;-68
2023/07/12 00:18:00;;;;;;;4.13;2.40;;;20.10;99.90;;;;;;5019323;28;20129;-68
2023/07/12 00:20:35;;;;;;;4.68;2.10;;;20.10;99.90;;;;;;5027313;28;20416;-68
2023/07/12 00:23:10;;;;;;;35.08;3.40;;;20.10;99.90;;;;;;5023473;28;20091;-68
2023/07/12 00:25:43;;;;;;;4.30;1.85;;;20.10;99.90;;;;;;5023403;28;20037;-68
2023/07/12 00:28:20;;;;;;;2.42;1.50;;;20.10;99.90;;;;;;5012575;28;20115;-68
2023/07/12 00:30:55;;;;;;;2.53;2.00;;;20.20;99.90;;;;;;5023655;28;20033;-67
2023/07/12 00:33:27;;;;;;;3.78;1.80;;;20.20;99.90;;;;;;5005638;28;20042;-68
2023/07/12 00:35:59;;;;;;;4.30;2.08;;;20.10;99.90;;;;;;5017919;28;20041;-68
2023/07/12 00:38:26;;;;;;;4.03;1.80;;;20.20;99.90;;;;;;5010200;28;20136;-68
2023/07/12 00:41:16;;;;;;;3.25;1.77;;;20.20;99.90;;;;;;5016439;28;20057;-68
2023/07/12 00:44:09;;;;;;;4.72;2.78;;;20.20;99.90;;;;;;5004174;28;20052;-68
2023/07/12 00:46:46;;;;;;;5.80;1.90;;;20.10;99.90;;;;;;5006553;28;20449;-68
2023/07/12 00:49:17;;;;;;;5.15;2.13;;;20.10;99.90;;;;;;5003670;28;20040;-68
2023/07/12 00:52:10;;;;;;;5.55;1.80;;;20.10;99.90;;;;;;4990621;28;20030;-68
2023/07/12 00:54:51;;;;;;;4.43;2.03;;;20.10;99.90;;;;;;4988525;28;20479;-68
2023/07/12 00:57:25;;;;;;;3.22;1.73;;;20.10;99.90;;;;;;5002381;28;20053;-68
2023/07/12 01:00:12;;;;;;;4.88;1.90;;;20.00;99.90;;;;;;5017825;28;20046;-68
2023/07/12 01:02:42;;;;;;;4.70;2.20;;;20.00;99.90;;;;;;5011543;28;20061;-68
2023/07/12 01:05:15;;;;;;;3.55;1.77;;;19.90;99.90;;;;;;5003228;28;20554;-68
2023/07/12 01:07:49;;;;;;;4.07;2.00;;;20.00;99.90;;;;;;5019726;28;20525;-68
2023/07/12 01:10:21;;;;;;;3.90;2.40;;;19.90;99.90;;;;;;5021895;28;20049;-68
2023/07/12 01:12:52;;;;;;;5.22;2.22;;;19.80;99.90;;;;;;5004507;28;20033;-68
2023/07/12 01:15:24;;;;;;;4.47;2.80;;;19.80;99.90;;;;;;5020770;28;20136;-68
2023/07/12 01:17:56;;;;;;;6.32;2.80;;;19.80;99.90;;;;;;5024667;28;20050;-68
2023/07/12 01:20:33;;;;;;;5.20;2.95;;;19.80;99.90;;;;;;5014022;28;20053;-68
2023/07/12 01:23:00;;;;;;;3.30;2.53;;;19.80;99.90;;;;;;5033420;28;20046;-68
2023/07/12 01:25:39;;;;;;;6.68;2.67;;;19.90;99.90;;;;;;5015380;28;20053;-68
2023/07/12 01:28:11;;;;;;;4.10;2.50;;;20.00;99.90;;;;;;5028529;28;20116;-68
2023/07/12 01:30:43;;;;;;;4.55;2.63;;;19.90;99.90;;;;;;5023525;28;20056;-68
2023/07/12 01:33:18;;;;;;;5.38;2.60;;;20.00;99.90;;;;;;5019223;28;20410;-68
2023/07/12 01:35:50;;;;;;;2.80;2.50;;;20.00;99.90;;;;;;5016541;28;20107;-68
2023/07/12 01:38:23;;;;;;;;;;;20.00;99.90;;;;;;5017313;28;20052;-69
2023/07/12 01:40:55;;;;;;;6.95;3.13;;;20.00;99.90;;;;;;5017861;28;19920;-68
2023/07/12 01:43:22;;;;;;;4.28;3.08;;;20.00;99.90;;;;;;5020535;28;20492;-68
2023/07/12 01:45:55;;;;;;;7.47;3.40;;;20.00;99.90;;;;;;5017290;28;20946;-69
2023/07/12 01:48:27;;;;;;;5.88;3.10;;;19.90;99.90;;;;;;5034740;28;20050;-68
2023/07/12 01:50:59;;;;;;;6.45;2.75;;;20.00;99.90;;;;;;5006085;28;20064;-68
2023/07/12 01:53:33;;;;;;;6.90;2.88;;;20.00;99.90;;;;;;5019415;28;20068;-69
2023/07/12 01:56:05;;;;;;;;;;;20.00;99.90;;;;;;5039573;28;20038;-69
2023/07/12 01:58:37;;;;;;;6.68;3.00;;;19.90;99.90;;;;;;5035712;28;19925;-69
2023/07/12 02:01:09;;;;;;;7.85;4.40;;;20.00;99.90;;;;;;5034199;28;20132;-69
2023/07/12 02:03:41;;;;;;;7.03;3.30;;;19.90;99.90;;;;;;5012591;28;20543;-69
2023/07/12 02:06:15;;;;;;;5.13;3.35;;;19.90;99.90;;;;;;5026884;28;20049;-69
2023/07/12 02:08:49;;;;;;;5.88;3.53;;;19.80;99.90;;;;;;5019568;28;20033;-69
2023/07/12 02:11:21;;;;;;;5.60;2.95;;;19.80;99.90;;;;;;5015244;28;20116;-69
2023/07/12 02:13:53;;;;;;;6.32;3.28;;;19.70;99.90;;;;;;5020929;28;20046;-68
2023/07/12 02:16:20;;;;;;;3.58;2.95;;;19.80;99.90;;;;;;5008789;28;20104;-69
2023/07/12 02:18:52;;;;;;;7.38;3.47;;;19.80;99.90;;;;;;5035734;28;20045;-69
2023/07/12 02:21:24;;;;;;;6.20;3.55;;;19.70;99.90;;;;;;5018228;28;20037;-69
2023/07/12 02:23:56;;;;;;;7.38;4.32;;;19.70;99.90;;;;;;5013715;28;20125;-68
2023/07/12 02:26:27;;;;;;;6.43;3.65;;;19.60;99.90;;;;;;5013517;28;20053;-68
2023/07/12 02:28:59;;;;;;;4.28;3.40;;;19.50;99.90;;;;;;5010767;28;20064;-69
2023/07/12 02:31:32;;;;;;;6.20;4.10;;;19.40;99.90;;;;;;5019266;28;21144;-68
2023/07/12 02:34:04;;;;;;;8.40;3.53;;;19.40;99.90;;;;;;5016863;28;20042;-69
2023/07/12 02:36:30;;;;;;;4.50;3.38;;;19.50;99.90;;;;;;5036924;28;20052;-69
2023/07/12 02:39:02;;;;;;;6.93;3.95;;;19.50;99.90;;;;;;5019675;28;20034;-68
2023/07/12 02:41:34;;;;;;;10.60;4.00;;;19.40;99.90;;;;;;5025835;28;20040;-69
2023/07/12 02:44:06;;;;;;;6.43;3.83;;;19.40;99.90;;;;;;5017835;28;20075;-69
2023/07/12 02:46:38;;;;;;;8.30;3.97;;;19.40;99.90;;;;;;5016861;28;20026;-69
2023/07/12 02:49:10;;;;;;;5.63;3.53;;;19.30;99.90;;;;;;5013425;28;20049;-69
2023/07/12 02:51:42;;;;;;;5.55;3.60;;;19.30;99.90;;;;;;5017190;28;20030;-69
2023/07/12 02:54:14;;;;;;;4.05;3.50;;;19.20;99.90;;;;;;5012079;28;20065;-69
2023/07/12 02:56:45;;;;;;;6.93;3.80;;;19.20;99.90;;;;;;5018494;28;20044;-69
2023/07/12 02:59:18;;;;;;;8.40;3.80;;;19.20;99.90;;;;;;5021556;28;20037;-69
2023/07/12 03:01:50;;;;;;;5.07;3.70;;;19.20;99.90;;;;;;5021550;28;20045;-69
2023/07/12 03:04:17;;;;;;;6.75;4.13;;;19.20;99.90;;;;;;5019267;28;20116;-68
2023/07/12 03:06:49;;;;;;;5.53;3.78;;;19.20;99.90;;;;;;5020820;28;20038;-69
2023/07/12 03:09:22;;;;;;;10.43;4.23;;;19.10;99.90;;;;;;5014274;28;20041;-69
2023/07/12 03:11:54;;;;;;;7.38;4.75;;;19.00;99.90;;;;;;5015925;28;20049;-69
2023/07/12 03:14:26;;;;;;;9.25;4.22;;;19.00;99.90;;;;;;5010690;28;20037;-69
2023/07/12 03:16:58;;;;;;;9.00;3.83;;;19.00;99.90;;;;;;5013040;28;20042;-69
2023/07/12 03:19:30;;;;;;;7.97;4.07;;;19.00;99.90;;;;;;5019975;28;20052;-69
2023/07/12 03:22:02;;;;;;;8.27;3.97;;;19.00;99.90;;;;;;5005275;28;20427;-68
2023/07/12 03:24:35;;;;;;;6.72;4.13;;;19.00;99.90;;;;;;5021947;28;20046;-68
2023/07/12 03:27:07;;;;;;;5.93;4.95;;;19.00;99.90;;;;;;5007755;28;20038;-69
2023/07/12 03:29:34;;;;;;;7.70;3.92;;;19.10;99.90;;;;;;5024199;28;20069;-69
2023/07/12 03:32:06;;;;;;;6.65;4.07;;;19.10;99.90;;;;;;5016091;28;20041;-69
2023/07/12 03:34:38;;;;;;;9.43;4.73;;;19.10;99.90;;;;;;5015681;28;20038;-68
2023/07/12 03:37:12;;;;;;;12.93;4.28;;;19.10;99.90;;;;;;5014872;28;20041;-69
2023/07/12 03:39:44;;;;;;;8.48;4.13;;;19.10;99.90;;;;;;5017285;28;20546;-69
2023/07/12 03:42:16;;;;;;;6.57;3.70;;;19.10;99.90;;;;;;5020681;28;20033;-69
2023/07/12 03:44:48;;;;;;;7.07;3.97;;;19.00;99.90;;;;;;5007843;28;20131;-69
2023/07/12 03:47:20;;;;;;;5.97;3.90;;;19.00;99.90;;;;;;5024120;28;20044;-69
2023/07/12 03:49:47;;;;;;;6.30;4.25;;;19.00;99.90;;;;;;5021773;28;20072;-69
2023/07/12 03:52:20;;;;;;;7.78;4.10;;;19.00;99.90;;;;;;5013527;28;20045;-69
2023/07/12 03:54:47;;;;;;;5.72;4.07;;;18.90;99.90;;;;;;5026078;28;20066;-69
2023/07/12 03:57:19;;;;;;;6.38;3.95;;;18.90;99.90;;;;;;4998664;28;20070;-69
2023/07/12 03:59:51;;;;;;;6.57;4.65;;;18.80;99.90;;;;;;5023065;28;20073;-68
2023/07/12 04:02:18;;;;;;;7.90;4.25;;;18.80;99.90;;;;;;5018518;28;20132;-68
2023/07/12 04:04:45;;;;;;;10.27;4.45;;;18.90;99.90;;;;;;5020666;28;20589;-69
2023/07/12 04:07:17;;;;;;;6.90;4.13;;;18.90;99.90;;;;;;5022590;28;20543;-68
2023/07/12 04:09:49;;;;;;;5.60;4.05;;;19.00;99.90;;;;;;5021999;28;20402;-69
2023/07/12 04:12:21;;;;;;;8.25;4.10;;;18.90;99.90;;;;;;5023543;28;20045;-69
2023/07/12 04:14:54;;;;;;;5.82;4.13;;;19.00;99.90;;;;;;5021654;28;20124;-69
2023/07/12 04:17:25;;;;;;;5.32;4.35;;;19.10;99.90;;;;;;5015100;28;20050;-70
2023/07/12 04:19:52;;;;;;;9.90;4.20;;;19.10;99.90;;;;;;5027466;28;20770;-69
2023/07/12 04:22:20;;;;;;;7.10;3.88;;;19.20;99.90;;;;;;5003673;28;20120;-69
2023/07/12 04:24:53;;;;;;;6.43;4.10;;;19.20;99.90;;;;;;5019638;28;20128;-69
2023/07/12 04:27:25;;;;;;;7.47;4.22;;;19.20;99.90;;;;;;5022407;28;20096;-69
2023/07/12 04:29:57;;;;;;;7.38;4.18;;;19.20;99.90;;;;;;5013192;28;20048;-69
2023/07/12 04:32:29;;;;;;;5.30;4.28;;;19.20;99.90;;;;;;5025182;28;20034;-69
2023/07/12 04:35:01;;;;;;;5.75;4.03;;;19.10;99.90;;;;;;5009834;28;20052;-69
2023/07/12 04:37:31;;;;;;;8.38;4.90;;;19.20;99.90;;;;;;5019804;28;20133;-69
2023/07/12 04:39:58;;;;;;;8.35;4.43;;;19.20;99.90;;;;;;5021371;28;20550;-68
2023/07/12 04:42:25;;;;;;;8.98;4.28;;;19.20;99.90;;;;;;5000060;28;20104;-68
2023/07/12 04:44:57;;;;;;;7.97;4.57;;;19.20;99.90;;;;;;5008167;28;20059;-69
2023/07/12 04:47:29;;;;;;;7.32;4.82;;;19.30;99.90;;;;;;5023888;28;20038;-69
2023/07/12 04:49:56;;;;;;;8.45;4.28;;;19.40;99.90;;;;;;5022382;28;20044;-68
2023/07/12 04:52:28;;;;;;;9.60;5.45;;;19.40;99.90;;;;;;5029637;28;20034;-68
2023/07/12 04:55:18;;;;;;;6.72;4.63;;;19.40;99.90;;;;;;5028162;28;20864;-68
2023/07/12 04:57:45;;;;;;;5.70;5.07;;;19.40;99.90;;;;;;5023368;28;20034;-68
2023/07/12 05:00:17;;;;;;;6.70;5.47;;;19.40;99.90;;;;;;5004492;28;20049;-68
2023/07/12 05:02:50;;;;;;;10.07;6.00;;;19.40;99.90;;;;;;5013007;28;20042;-69
2023/07/12 05:05:22;;;;;;;8.82;5.68;;;19.40;99.90;;;;;;5013097;28;20044;-68
2023/07/12 05:07:49;;;;;;;6.57;4.50;;;19.40;99.90;;;;;;5024021;28;20030;-68
2023/07/12 05:10:22;;;;;;;6.65;4.80;;;19.40;99.90;;;;;;5018956;28;20405;-68
2023/07/12 05:12:54;;;;;;;8.45;5.30;;;19.50;99.90;;;;;;5023398;28;20038;-69
2023/07/12 05:15:25;;;;;;;6.53;5.13;;;19.60;99.90;;;;;;5055494;23;20520;-66
2023/07/12 05:17:53;;;;;;;9.07;5.10;;;19.70;99.90;;;;;;5022416;28;20034;-66
2023/07/12 05:20:20;;;;;;;10.30;4.55;;;19.70;99.90;;;;;;5017149;28;20148;-66
2023/07/12 05:22:51;;;;;;;5.05;4.30;;;19.80;99.90;;;;;;5019476;28;20051;-66
2023/07/12 05:25:23;;;;;;;7.95;4.97;;;19.90;99.90;;;;;;5016889;28;20046;-66
2023/07/12 05:27:55;;;;;;;10.07;4.32;;;20.10;99.90;;;;;;5008235;28;20492;-66
2023/07/12 05:30:27;;;;;;;6.15;4.18;;;20.10;99.90;;;;;;5014923;28;20124;-66
2023/07/12 05:32:54;;;;;;;6.53;4.40;;;20.10;99.90;;;;;;5027932;28;20037;-66
2023/07/12 05:35:26;;;;;;;5.13;3.10;;;20.20;99.90;;;;;;5019767;28;20095;-66
2023/07/12 05:37:58;;;;;;;7.50;3.00;;;20.10;99.90;;;;;;5017839;28;20042;-66
2023/07/12 05:40:30;;;;;;;5.30;3.30;;;20.00;99.90;;;;;;5019621;28;20054;-68
2023/07/12 05:43:01;;;;;;;6.15;3.67;;;19.80;99.90;;;;;;5020815;28;20037;-68
2023/07/12 05:45:34;;;;;;;5.57;3.30;;;19.60;99.90;;;;;;5016611;28;20034;-67
2023/07/12 05:48:06;;;;;;;7.22;3.65;;;19.60;99.90;;;;;;5016637;28;20042;-69
2023/07/12 05:50:33;;;;;;;9.15;4.47;;;19.40;99.90;;;;;;5023458;28;20117;-68
2023/07/12 05:53:04;;;;;;;6.70;4.07;;;19.30;99.90;;;;;;5012624;28;20717;-67
2023/07/12 05:55:36;;;;;;;11.07;4.22;;;19.20;99.90;;;;;;5017366;28;20055;-69
2023/07/12 05:58:09;;;;;;;7.70;3.70;;;19.10;99.90;;;;;;5024100;28;20045;-68
2023/07/12 06:00:40;;;;;;;6.97;4.10;;;19.10;99.90;;;;;;5016675;28;20529;-68
2023/07/12 06:03:13;;;;;;;7.93;3.88;;;19.10;99.90;;;;;;5019202;28;20124;-68
2023/07/12 06:05:44;;;;;;;8.50;4.43;;;19.10;99.90;;;;;;5020055;28;20058;-67
2023/07/12 06:08:11;;;;;;;10.80;5.45;;;19.10;99.90;;;;;;5011946;28;20080;-67
2023/07/12 06:10:47;;;;;;;9.20;4.88;;;19.00;99.90;;;;;;5020118;28;20495;-67
2023/07/12 06:13:19;;;;;;;6.43;3.75;;;19.00;99.90;;;;;;5017726;28;20037;-67
2023/07/12 06:15:51;;;;;;;5.53;3.80;;;19.00;99.90;;;;;;5030999;28;20415;-67
2023/07/12 06:18:24;;;;;;;4.35;3.50;;;19.00;99.90;;;;;;5020239;28;20095;-67
2023/07/12 06:20:57;;;;;;;6.93;4.28;;;19.00;99.90;;;;;;5021884;28;20517;-68
2023/07/12 06:23:29;;;;;;;8.68;4.45;;;19.00;99.90;;;;;;5022733;28;20046;-67
2023/07/12 06:25:57;;;;;;;6.50;3.42;;;19.00;99.90;;;;;;5019984;28;20559;-67
2023/07/12 06:28:25;;;;;;;6.18;3.70;;;19.10;99.90;;;;;;5023439;28;20196;-67
2023/07/12 06:30:52;;;;;;;4.25;3.17;;;19.20;99.90;;;;;;5025053;28;20037;-67
2023/07/12 06:33:24;;;;;;;5.88;3.42;;;19.20;99.90;;;;;;5013615;28;20099;-64
2023/07/12 06:35:56;;;;;;;6.40;3.50;;;19.20;99.90;;;;;;5010750;28;20586;-64
2023/07/12 06:38:28;;;;;;;6.82;4.80;;;19.30;99.90;;;;;;5013164;28;20065;-64
2023/07/12 06:41:00;;;;;;;12.23;5.10;;;19.30;99.90;;;;;;5020127;28;20430;-64
2023/07/12 06:43:32;;;;;;;5.47;3.50;;;19.30;99.90;;;;;;5016798;28;20108;-64
2023/07/12 06:46:04;;;;;;;6.90;3.80;;;19.40;99.90;;;;;;5020705;28;20042;-64
2023/07/12 06:48:30;;;;;;;6.75;3.42;;;19.50;99.90;;;;;;5023808;28;20041;-64
2023/07/12 06:51:02;;;;;;;7.57;4.30;;;19.50;99.90;;;;;;5016652;28;20052;-64
2023/07/12 06:53:34;;;;;;;8.95;5.10;;;19.50;99.90;;;;;;5025923;28;20041;-64
2023/07/12 06:56:06;;;;;;;6.65;4.00;;;19.60;99.90;;;;;;5020875;28;20034;-64
2023/07/12 06:58:38;;;;;;;6.30;4.05;;;19.60;99.90;;;;;;5007605;28;20071;-64
2023/07/12 07:01:10;;;;;;;8.32;3.75;;;19.70;99.90;;;;;;5021181;28;20054;-64
2023/07/12 07:03:42;;;;;;;7.43;3.83;;;19.70;99.90;;;;;;5024415;28;20055;-64
2023/07/12 07:06:14;;;;;;;7.80;3.92;;;19.80;99.90;;;;;;5019204;28;20057;-64
2023/07/12 07:08:47;;;;;;;6.13;4.07;;;19.80;99.90;;;;;;5022225;28;20041;-64
2023/07/12 07:11:19;;;;;;;7.82;3.63;;;19.80;99.90;;;;;;5020744;28;20095;-64
2023/07/12 07:13:51;;;;;;;6.38;4.20;;;19.90;99.90;;;;;;5023413;28;20042;-64
2023/07/12 07:16:24;;;;;;;7.38;3.65;;;19.90;99.90;;;;;;5019225;28;20046;-64
2023/07/12 07:18:57;;;;;;;6.85;3.78;;;19.90;99.90;;;;;;5025118;28;20578;-64
2023/07/12 07:21:29;;;;;;;6.65;4.20;;;20.00;99.90;;;;;;5015224;28;20045;-64
2023/07/12 07:24:00;;;;;;;7.35;3.80;;;20.10;99.90;;;;;;5013747;28;20077;-64
2023/07/12 07:26:32;;;;;;;6.68;3.95;;;20.10;99.90;;;;;;5011715;28;20049;-65
2023/07/12 07:29:04;;;;;;;8.70;4.38;;;20.20;99.90;;;;;;5023440;28;20583;-65
2023/07/12 07:31:36;;;;;;;7.32;4.03;;;20.30;99.90;;;;;;5022732;28;20459;-66
2023/07/12 07:34:08;;;;;;;7.07;3.33;;;20.40;99.90;;;;;;5017862;28;20037;-65
2023/07/12 07:36:35;;;;;;;7.07;3.95;;;20.50;99.90;;;;;;5020664;28;20140;-65
2023/07/12 07:39:07;;;;;;;7.55;3.80;;;20.60;99.90;;;;;;5018274;28;20092;-65
2023/07/12 07:41:34;;;;;;;9.50;3.47;;;20.70;99.90;;;;;;5015766;28;20044;-65
2023/07/12 07:44:00;;;;;;;5.95;3.47;;;20.80;99.90;;;;;;5014610;28;20124;-64
2023/07/12 07:46:32;;;;;;;6.00;3.90;;;20.90;99.90;;;;;;5016200;28;20049;-65
2023/07/12 07:49:04;;;;;;;6.72;3.72;;;21.00;99.90;;;;;;5016087;28;20498;-64
2023/07/12 07:51:36;;;;;;;5.75;3.38;;;21.10;99.90;;;;;;5020933;28;20034;-64
2023/07/12 07:54:08;;;;;;;6.40;3.25;;;21.20;99.90;;;;;;5021715;28;20135;-65
2023/07/12 07:56:41;;;;;;;6.20;3.60;;;21.10;99.90;;;;;;5017960;28;20042;-64
2023/07/12 07:59:09;;;;;;;6.07;3.70;;;21.20;99.90;;;;;;5018970;28;20100;-64
2023/07/12 08:01:41;;;;;;;7.32;3.97;;;21.40;99.90;;;;;;5013406;28;20052;-64
2023/07/12 08:04:09;;;;;;;7.30;3.47;;;21.40;99.90;;;;;;5007098;28;20053;-64
2023/07/12 08:06:40;;;;;;;6.15;3.30;;;21.50;99.90;;;;;;5028655;28;20046;-65
2023/07/12 08:09:12;;;;;;;6.35;3.50;;;21.50;99.90;;;;;;5020007;28;20061;-65
2023/07/12 08:11:44;;;;;;;5.57;3.45;;;21.70;99.90;;;;;;5017159;28;20044;-64
2023/07/12 08:14:18;;;;;;;5.97;4.45;;;21.70;99.90;;;;;;5013514;28;20515;-65
2023/07/12 08:16:50;;;;;;;5.35;3.72;;;21.70;99.90;;;;;;5020964;28;20033;-64
2023/07/12 08:19:22;;;;;;;6.63;4.65;;;21.90;99.90;;;;;;5022216;28;20704;-64
2023/07/12 08:21:54;;;;;;;8.90;5.07;;;21.90;99.90;;;;;;5020790;28;20576;-64
2023/07/12 08:24:26;;;;;;;7.93;4.18;;;22.00;99.90;;;;;;5017016;28;20049;-64
2023/07/12 08:26:58;;;;;;;8.85;4.40;;;22.10;99.90;;;;;;5017807;28;20057;-65
2023/07/12 08:29:29;;;;;;;6.53;4.70;;;22.20;99.90;;;;;;5021319;28;20136;-65
2023/07/12 08:32:02;;;;;;;5.95;4.15;;;22.20;99.90;;;;;;5020215;28;20038;-64
2023/07/12 08:34:34;;;;;;;7.85;4.35;;;22.30;99.90;;;;;;5023804;28;20037;-64
2023/07/12 08:37:06;;;;;;;6.00;3.90;;;22.50;99.90;;;;;;5024289;28;20038;-64
2023/07/12 08:39:38;;;;;;;7.78;4.50;;;22.70;99.90;;;;;;5021232;28;20529;-64
2023/07/12 08:42:13;;;;;;;7.57;4.60;;;22.70;99.90;;;;;;5024692;28;20045;-65
2023/07/12 08:44:46;;;;;;;7.05;4.68;;;22.80;99.90;;;;;;5016600;28;20438;-64
2023/07/12 08:47:30;;;;;;;7.47;4.28;;;23.00;99.90;;;;;;5016185;28;20042;-64
2023/07/12 08:50:12;;;;;;;7.55;4.18;;;23.10;99.90;;;;;;5014475;28;20550;-64
2023/07/12 08:52:45;;;;;;;7.25;4.13;;;23.10;99.90;;;;;;5013768;28;20042;-64
2023/07/12 08:55:19;;;;;;;6.25;3.63;;;23.20;99.90;;;;;;5015643;28;20044;-64
2023/07/12 08:58:03;;;;;;;6.00;4.20;;;23.20;99.90;;;;;;5023306;28;20048;-65
2023/07/12 09:00:36;;;;;;;;;;;23.20;99.90;;;;;;5024080;28;20041;-62
2023/07/12 09:03:08;;;;;;;7.35;4.15;;;23.40;99.90;;;;;;5023621;28;19925;-62
2023/07/12 09:05:35;;;;;;;8.82;4.20;;;23.50;99.90;;;;;;5011429;28;20039;-62
2023/07/12 09:08:09;;;;;;;6.05;3.83;;;23.50;99.90;;;;;;5013243;28;20120;-65
2023/07/12 09:10:48;;;;;;;12.27;4.03;;;23.50;99.90;;;;;;5011837;28;20034;-64
2023/07/12 09:13:19;;;;;;;10.73;4.57;;;23.50;99.90;;;;;;5010927;28;20034;-65
2023/07/12 09:15:52;;;;;;;9.07;4.80;;;23.70;99.90;;;;;;5040758;28;20049;-65
2023/07/12 09:18:36;;;;;;;11.38;4.15;;;23.80;99.90;;;;;;5022747;28;20033;-65
2023/07/12 09:21:19;;;;;;;18.88;5.65;;;23.80;99.90;;;;;;5028688;28;20080;-65
2023/07/12 09:23:46;;;;;;;10.15;3.92;;;23.80;99.90;;;;;;5022308;28;20476;-66
2023/07/12 09:26:24;;;;;;;10.88;4.32;;;23.80;99.90;;;;;;5040140;28;20040;-65
2023/07/12 09:29:07;;;;;;;;;;;23.80;99.90;;;;;;5040798;28;20379;-66
2023/07/12 09:31:41;;;;;;;8.73;4.18;;;23.80;99.90;;;;;;5039748;28;20024;-65
2023/07/12 09:34:18;;;;;;;7.85;3.97;;;23.80;99.90;;;;;;5030620;28;20041;-65
2023/07/12 09:36:45;;;;;;;8.77;4.57;;;23.80;99.90;;;;;;5033753;28;20095;-65
2023/07/12 09:39:17;;;;;;;9.25;5.05;;;23.90;99.90;;;;;;5020837;28;20538;-65
2023/07/12 09:41:53;;;;;;;12.32;5.38;;;24.00;99.90;;;;;;5039764;28;20045;-63
2023/07/12 09:44:21;;;;;;;8.75;4.50;;;24.30;99.90;;;;;;5019169;28;20514;-65
2023/07/12 09:46:59;;;;;;;8.23;4.40;;;24.30;99.90;;;;;;5039294;28;20037;-65
2023/07/12 09:49:33;;;;;;;;;;;24.40;99.90;;;;;;5039843;28;20145;-66
2023/07/12 09:52:17;;;;;;;7.93;4.57;;;24.50;99.90;;;;;;5032775;28;19947;-63
2023/07/12 09:55:03;;;;;;;11.93;4.78;;;24.60;99.90;;;;;;5028538;28;20033;-63
2023/07/12 09:58:02;;;;;;;7.70;4.90;;;24.70;99.90;;;;;;5031787;28;20042;-65
2023/07/12 10:00:41;;;;;;;9.85;5.18;;;24.70;99.90;;;;;;5033352;28;20703;-65
2023/07/12 10:03:23;;;;;;;13.45;4.93;;;24.80;99.90;;;;;;5008409;28;20052;-65
2023/07/12 10:06:04;;;;;;;8.95;5.60;;;24.90;99.90;;;;;;5018288;28;20048;-63
2023/07/12 10:08:57;;;;;;;9.40;5.13;;;25.10;99.90;;;;;;5040432;28;20112;-63
2023/07/12 10:11:39;;;;;;;12.02;5.10;;;25.10;99.90;;;;;;5039056;28;20475;-63
2023/07/12 10:14:15;;;;;;;11.85;4.78;;;25.10;99.90;;;;;;5019948;28;20049;-63
2023/07/12 10:16:51;;;;;;;7.18;4.90;;;24.90;99.90;;;;;;5038820;28;20465;-63
2023/07/12 10:19:38;;;;;;;10.68;5.22;;;24.90;99.90;;;;;;5020385;28;20503;-63
2023/07/12 10:22:19;;;;;;;10.02;5.45;;;24.80;99.90;;;;;;5032375;28;20042;-63
2023/07/12 10:24:53;;;;;;;12.05;6.63;;;24.90;99.90;;;;;;5033136;28;20048;-63
2023/07/12 10:27:35;;;;;;;9.98;5.40;;;25.00;99.90;;;;;;5038991;28;20041;-63
2023/07/12 10:30:13;;;;;;;10.55;5.28;;;24.90;99.90;;;;;;5037585;28;20056;-63
2023/07/12 10:33:06;;;;;;;10.82;6.60;;;25.00;99.90;;;;;;5040148;28;20033;-63
2023/07/12 10:35:46;;;;;;;9.00;5.93;;;24.90;99.90;;;;;;5035974;28;20042;-63
2023/07/12 10:38:23;;;;;;;10.57;5.93;;;24.90;99.90;;;;;;5040790;28;20037;-63
2023/07/12 10:40:59;;;;;;;10.57;6.00;;;25.00;99.90;;;;;;5018238;28;20113;-63
2023/07/12 10:43:43;;;;;;;7.70;5.05;;;25.10;99.90;;;;;;5040383;28;20040;-63
2023/07/12 10:46:43;;;;;;;9.13;5.38;;;25.20;99.90;;;;;;5035457;28;20037;-63
2023/07/12 10:49:19;;;;;;;8.90;5.72;;;25.10;99.90;;;;;;5016813;28;20049;-63
2023/07/12 10:52:28;;;;;;;7.50;5.50;;;25.20;99.90;;;;;;5036585;28;20113;-63
2023/07/12 10:55:04;;;;;;;9.13;6.20;;;25.30;99.90;;;;;;4991087;28;20115;-63
2023/07/12 10:57:46;;;;;;;11.15;6.53;;;25.40;99.90;;;;;;5010079;28;20120;-63
2023/07/12 11:00:30;;;;;;;10.63;5.33;;;25.50;99.90;;;;;;5035747;28;20118;-62
2023/07/12 11:03:09;;;;;;;8.38;5.68;;;25.50;99.90;;;;;;5030091;28;20578;-65
2023/07/12 11:05:43;;;;;;;8.98;6.18;;;25.60;99.90;;;;;;5031300;28;20037;-64
2023/07/12 11:08:30;;;;;;;7.65;5.15;;;25.60;99.90;;;;;;5037942;28;20061;-64
2023/07/12 11:11:32;;;;;;;6.85;5.43;;;25.70;99.90;;;;;;5041341;28;20044;-64
2023/07/12 11:14:35;;;;;;;7.80;5.65;;;25.70;99.90;;;;;;5018984;28;20044;-65
2023/07/12 11:17:07;;;;;;;7.27;5.87;;;25.70;99.90;;;;;;5008017;28;20042;-65
2023/07/12 11:20:06;;;;;;;11.75;5.55;;;26.10;99.90;;;;;;5023825;28;20041;-66
2023/07/12 11:23:04;;;;;;;11.70;5.75;;;26.50;99.90;;;;;;4978608;28;20050;-70
2023/07/12 11:25:44;;;;;;;7.18;6.10;;;26.70;99.90;;;;;;4944398;28;20058;-70
2023/07/12 11:28:22;;;;;;;8.13;5.68;;;26.90;99.90;;;;;;4975748;28;20113;-70
2023/07/12 11:31:23;;;;;;;8.48;5.75;;;27.00;99.90;;;;;;4969155;28;20042;-70
2023/07/12 11:34:03;;;;;;;8.98;5.63;;;27.00;99.90;;;;;;4963363;28;20043;-69
2023/07/12 11:36:36;;;;;;;7.57;6.30;;;26.90;99.90;;;;;;4953274;28;20121;-70
2023/07/12 11:39:17;;;;;;;10.07;5.90;;;26.90;99.90;;;;;;4964755;28;20039;-70
2023/07/12 11:42:08;;;;;;;9.20;5.60;;;27.00;99.90;;;;;;4959981;28;20075;-70
2023/07/12 11:44:40;;;;;;;7.15;5.65;;;27.20;99.90;;;;;;4962493;28;20413;-70
2023/07/12 11:47:12;;;;;;;12.13;6.43;;;27.40;99.90;;;;;;4958368;28;20039;-70
2023/07/12 11:49:45;;;;;;;10.50;6.05;;;27.60;99.90;;;;;;4956619;28;20114;-70
2023/07/12 11:52:16;;;;;;;10.93;7.30;;;27.70;99.90;;;;;;4956924;28;20039;-70
2023/07/12 11:54:44;;;;;;;7.30;6.22;;;27.70;99.90;;;;;;4959868;28;20031;-70
2023/07/12 11:57:15;;;;;;;8.70;6.83;;;27.70;99.90;;;;;;4950546;28;20528;-70
2023/07/12 11:59:45;;;;;;;9.65;5.82;;;27.70;99.90;;;;;;4969271;28;20041;-70
2023/07/12 12:02:21;;;;;;;7.88;6.38;;;27.80;99.90;;;;;;4979483;28;20047;-70
2023/07/12 12:04:59;;;;;;;9.90;6.93;;;27.60;99.90;;;;;;4967325;28;20035;-69
2023/07/12 12:07:36;;;;;;;11.73;7.15;;;27.50;99.90;;;;;;4970007;28;20481;-70
2023/07/12 12:10:06;;;;;;;9.32;6.50;;;27.50;99.90;;;;;;4951818;28;20039;-70
2023/07/12 12:12:40;;;;;;;14.93;7.40;;;27.30;99.90;;;;;;4978316;28;20130;-70
2023/07/12 12:15:27;;;;;;;9.10;6.95;;;27.30;99.90;;;;;;4960058;28;20069;-69
2023/07/12 12:17:55;;;;;;;9.18;7.07;;;27.20;99.90;;;;;;4975311;28;20054;-70
2023/07/12 12:20:28;;;;;;;11.18;6.20;;;27.30;99.90;;;;;;4966309;28;20043;-70
2023/07/12 12:23:11;;;;;;;;;;;27.20;99.90;;;;;;4984577;28;20077;-69
2023/07/12 12:25:46;;;;;;;11.00;6.93;;;27.10;99.90;;;;;;4955903;28;19921;-69
2023/07/12 12:28:37;;;;;;;9.48;7.28;;;27.10;99.90;;;;;;4978473;28;20515;-70
2023/07/12 12:31:21;;;;;;;7.38;5.57;;;27.00;99.90;;;;;;4984171;28;20101;-70
2023/07/12 12:34:05;;;;;;;8.38;5.85;;;26.90;99.90;;;;;;4971500;28;20038;-69
2023/07/12 12:36:38;;;;;;;5.80;5.00;;;26.70;99.90;;;;;;4980467;28;20042;-70
2023/07/12 12:39:12;;;;;;;5.60;4.90;;;26.70;99.90;;;;;;4983394;28;20524;-70
2023/07/12 12:42:16;;;;;;;5.57;4.28;;;26.70;99.90;;;;;;4977397;28;20129;-70
2023/07/12 12:44:42;;;;;;;6.45;4.75;;;26.60;99.90;;;;;;4953651;28;20423;-70
2023/07/12 12:47:16;;;;;;;6.07;5.15;;;26.50;99.90;;;;;;4967499;28;20035;-70
2023/07/12 12:49:49;;;;;;;11.02;5.85;;;26.20;99.90;;;;;;4978852;28;20043;-70
2023/07/12 12:52:26;;;;;;;9.80;5.72;;;26.00;99.90;;;;;;4960670;28;20101;-69
2023/07/12 12:55:06;;;;;;;10.15;6.30;;;25.70;99.90;;;;;;4968888;28;20145;-69
2023/07/12 12:57:39;;;;;;;10.07;6.20;;;25.40;99.90;;;;;;4971534;28;20054;-69
2023/07/12 13:00:22;;;;;;;7.38;4.80;;;25.10;99.90;;;;;;4961182;28;20057;-70
2023/07/12 13:02:54;;;;;;;9.90;5.97;;;24.70;99.90;;;;;;4961968;28;20617;-70
2023/07/12 13:05:23;;;;;;;7.88;5.82;;;24.40;99.90;;;;;;4983526;28;20452;-70
2023/07/12 13:07:58;;;;;;;9.43;6.50;;;24.10;99.90;;;;;;4979971;28;20118;-70
2023/07/12 13:10:30;;;;;;;9.00;6.10;;;23.80;99.90;;;;;;4957955;28;20055;-70
2023/07/12 13:13:04;;;;;;;9.15;6.25;;;23.70;99.90;;;;;;4969189;28;20039;-69
2023/07/12 13:15:30;;;;;;;8.90;6.20;;;23.50;99.90;;;;;;4973444;28;20097;-70
2023/07/12 13:17:57;;;;;;;11.90;8.32;;;23.40;99.90;;;;;;4953097;28;20425;-69
2023/07/12 13:20:30;;;;;;;10.43;6.85;;;23.30;99.90;;;;;;4979486;28;20071;-70
2023/07/12 13:23:03;;;;;;;10.80;7.20;;;23.20;99.90;;;;;;4968675;28;20067;-67